Time;durP1;ratioP1;P1;durP2;ratioP2;P2;SDS_P1;SDS_P2;PMS_P1;PMS_P2;Temp;Humidity;BMP_temperature;BMP_pressure;BME280_temperature;BME280_humidity;BME280_pressure;Samples;Min_cycle;Max_cycle;Signal;HPM_P1;HPM_P2
2021/04/18 00:00:51;;;;;;;;;;;5.20;82.40;;;;;;5028821;28;20036;-66
2021/04/18 00:03:17;;;;;;;20.55;12.55;;;5.20;82.60;;;;;;5027887;28;19909;-66
2021/04/18 00:05:42;;;;;;;;;;;5.20;82.60;;;;;;5028335;28;20029;-65
2021/04/18 00:08:08;;;;;;;18.65;12.38;;;5.10;82.70;;;;;;5028000;28;19905;-67
2021/04/18 00:10:34;;;;;;;;;;;5.10;82.90;;;;;;5027554;28;20067;-66
2021/04/18 00:13:02;;;;;;;20.38;12.85;;;5.10;82.90;;;;;;5026188;28;19920;-67
2021/04/18 00:15:29;;;;;;;18.35;13.55;;;5.10;83.10;;;;;;5027831;28;20028;-67
2021/04/18 00:17:55;;;;;;;16.92;12.40;;;5.00;83.40;;;;;;5027271;28;20036;-65
2021/04/18 00:20:20;;;;;;;;;;;4.90;83.40;;;;;;5028224;28;20167;-66
2021/04/18 00:22:47;;;;;;;16.85;11.63;;;4.90;83.80;;;;;;5027421;28;20369;-65
2021/04/18 00:25:15;;;;;;;17.13;12.15;;;4.90;83.70;;;;;;5027184;28;20057;-65
2021/04/18 00:27:43;;;;;;;16.02;11.48;;;4.90;83.80;;;;;;5027268;28;20224;-66
2021/04/18 00:30:11;;;;;;;14.75;10.93;;;4.80;83.90;;;;;;5027209;28;20033;-67
2021/04/18 00:32:38;;;;;;;17.35;11.70;;;4.80;84.00;;;;;;5027397;28;20029;-66
2021/04/18 00:35:05;;;;;;;14.80;10.68;;;4.80;84.10;;;;;;5027514;28;20081;-65
2021/04/18 00:37:31;;;;;;;13.35;10.48;;;4.80;84.20;;;;;;5027483;28;20029;-66
2021/04/18 00:39:56;;;;;;;;;;;4.80;84.10;;;;;;5027009;28;20095;-66
2021/04/18 00:42:22;;;;;;;19.45;10.88;;;4.70;84.40;;;;;;5026620;28;19928;-66
2021/04/18 00:44:48;;;;;;;17.40;10.90;;;4.70;84.60;;;;;;5026921;28;20049;-66
2021/04/18 00:47:16;;;;;;;15.90;11.60;;;4.60;84.60;;;;;;5027318;28;20033;-67
2021/04/18 00:49:43;;;;;;;15.45;11.27;;;4.70;84.70;;;;;;5027060;28;20052;-66
2021/04/18 00:52:09;;;;;;;15.63;10.75;;;4.70;84.70;;;;;;5027116;28;20083;-66
2021/04/18 00:54:34;;;;;;;;;;;4.70;84.80;;;;;;5027088;28;20496;-66
2021/04/18 00:57:00;;;;;;;17.08;12.13;;;4.80;85.00;;;;;;5026693;28;20024;-65
2021/04/18 00:59:26;;;;;;;;;;;4.70;84.40;;;;;;5027397;28;20572;-67
2021/04/18 01:01:51;;;;;;;18.83;11.60;;;4.70;84.50;;;;;;5026281;28;19968;-67
2021/04/18 01:04:17;;;;;;;;;;;4.70;84.80;;;;;;5027458;28;20075;-66
2021/04/18 01:06:42;;;;;;;17.08;12.18;;;4.70;85.00;;;;;;5026941;28;20436;-66
2021/04/18 01:09:08;;;;;;;;;;;4.60;85.10;;;;;;5026315;28;20022;-66
2021/04/18 01:11:34;;;;;;;22.60;13.63;;;4.60;85.40;;;;;;5026732;28;19921;-66
2021/04/18 01:13:59;;;;;;;;;;;4.50;85.50;;;;;;5027067;28;20099;-67
2021/04/18 01:16:25;;;;;;;33.55;24.23;;;4.60;85.70;;;;;;5026259;28;20000;-68
2021/04/18 01:18:50;;;;;;;;;;;4.60;85.60;;;;;;5027133;28;20039;-65
2021/04/18 01:21:16;;;;;;;20.52;15.13;;;4.60;85.50;;;;;;5026690;28;19963;-65
2021/04/18 01:23:42;;;;;;;;;;;4.60;85.50;;;;;;5026424;28;20053;-66
2021/04/18 01:26:08;;;;;;;21.45;13.52;;;4.50;85.70;;;;;;5026365;28;19913;-66
2021/04/18 01:28:33;;;;;;;20.20;13.93;;;4.50;85.80;;;;;;5026448;28;20025;-66
2021/04/18 01:31:00;;;;;;;;;;;4.60;85.70;;;;;;5027127;28;20103;-66
2021/04/18 01:33:25;;;;;;;19.40;12.75;;;4.60;85.80;;;;;;5026001;28;19909;-66
2021/04/18 01:35:51;;;;;;;;;;;4.60;85.80;;;;;;5026944;28;20043;-66
2021/04/18 01:38:17;;;;;;;22.67;15.57;;;4.60;85.90;;;;;;5025982;28;20364;-66
2021/04/18 01:40:43;;;;;;;;;;;4.60;86.00;;;;;;5026616;28;20114;-66
2021/04/18 01:43:17;;;;;;;18.70;13.73;;;4.60;85.80;;;;;;5026366;28;20018;-66
2021/04/18 01:45:43;;;;;;;19.15;12.60;;;4.70;85.90;;;;;;5025802;28;20429;-66
2021/04/18 01:48:10;;;;;;;23.85;15.68;;;4.70;85.80;;;;;;5025669;28;20064;-67
2021/04/18 01:50:44;;;;;;;22.45;13.82;;;4.70;85.70;;;;;;5041065;28;20045;-67
2021/04/18 01:53:09;;;;;;;21.15;14.82;;;4.70;85.70;;;;;;5030680;28;20114;-67
2021/04/18 01:55:36;;;;;;;;;;;4.70;85.80;;;;;;5033411;28;20029;-67
2021/04/18 01:58:02;;;;;;;28.17;19.08;;;4.70;85.90;;;;;;5032225;28;19909;-67
2021/04/18 02:00:28;;;;;;;31.10;17.92;;;4.80;85.80;;;;;;5032471;28;20615;-67
2021/04/18 02:02:53;;;;;;;;;;;4.80;85.80;;;;;;5033533;28;20025;-66
2021/04/18 02:05:20;;;;;;;29.83;17.80;;;4.80;85.90;;;;;;5047801;28;19912;-67
2021/04/18 02:07:45;;;;;;;33.40;18.77;;;4.80;85.90;;;;;;5051716;28;20452;-67
2021/04/18 02:10:11;;;;;;;;;;;4.80;86.10;;;;;;5052653;28;20128;-67
2021/04/18 02:12:37;;;;;;;31.98;19.23;;;4.80;86.20;;;;;;5052275;28;19995;-67
2021/04/18 02:15:03;;;;;;;;;;;4.90;86.10;;;;;;5053150;28;20098;-66
2021/04/18 02:17:28;;;;;;;31.60;19.25;;;5.00;85.70;;;;;;5051509;28;19916;-67
2021/04/18 02:19:54;;;;;;;;;;;5.00;85.70;;;;;;5052548;28;20029;-67
2021/04/18 02:22:20;;;;;;;24.50;14.02;;;5.00;85.80;;;;;;5052526;28;19904;-67
2021/04/18 02:24:45;;;;;;;;;;;5.00;85.80;;;;;;5051283;28;20044;-67
2021/04/18 02:27:11;;;;;;;36.40;19.75;;;5.10;85.70;;;;;;5051329;28;19904;-66
2021/04/18 02:29:37;;;;;;;;;;;5.20;85.30;;;;;;5053044;28;20102;-67
2021/04/18 02:32:02;;;;;;;33.90;19.48;;;5.10;85.20;;;;;;5050777;28;19919;-67
2021/04/18 02:34:28;;;;;;;;;;;5.20;85.20;;;;;;5052874;28;20108;-67
2021/04/18 02:36:54;;;;;;;38.42;21.05;;;5.20;84.50;;;;;;5048229;28;19932;-67
2021/04/18 02:39:19;;;;;;;;;;;5.20;84.60;;;;;;5037512;28;20024;-66
2021/04/18 02:41:45;;;;;;;62.70;30.50;;;5.20;84.90;;;;;;5047619;28;20146;-66
2021/04/18 02:44:10;;;;;;;;;;;5.20;84.70;;;;;;5032549;28;20217;-67
2021/04/18 02:46:36;;;;;;;30.85;17.52;;;5.20;84.50;;;;;;5036436;28;20400;-67
2021/04/18 02:49:02;;;;;;;;;;;5.30;84.30;;;;;;5048285;28;20067;-66
2021/04/18 02:51:29;;;;;;;23.13;15.00;;;5.40;83.50;;;;;;5046519;28;19913;-67
2021/04/18 02:53:58;;;;;;;51.30;26.13;;;5.50;83.30;;;;;;5046802;28;20409;-67
2021/04/18 02:56:25;;;;;;;42.55;22.67;;;5.50;82.90;;;;;;5047941;28;20382;-66
2021/04/18 02:58:50;;;;;;;24.80;15.75;;;5.50;83.20;;;;;;5046809;28;20021;-67
2021/04/18 03:01:16;;;;;;;;;;;5.50;83.60;;;;;;5048049;28;20108;-66
2021/04/18 03:03:42;;;;;;;22.13;14.32;;;5.60;83.30;;;;;;5043668;28;19905;-67
2021/04/18 03:06:07;;;;;;;;;;;5.60;82.50;;;;;;5044677;28;20555;-66
2021/04/18 03:08:33;;;;;;;22.45;13.35;;;5.70;82.90;;;;;;5043821;28;20333;-68
2021/04/18 03:10:58;;;;;;;;;;;5.60;83.50;;;;;;5044739;28;20060;-67
2021/04/18 03:13:24;;;;;;;19.05;11.95;;;5.70;83.40;;;;;;5044776;28;19904;-67
2021/04/18 03:15:49;;;;;;;;;;;5.80;83.70;;;;;;5045157;28;20757;-67
2021/04/18 03:18:15;;;;;;;21.13;12.93;;;5.90;83.40;;;;;;5043737;28;19944;-66
2021/04/18 03:20:41;;;;;;;;;;;5.90;83.60;;;;;;5045282;28;20029;-67
2021/04/18 03:23:06;;;;;;;24.02;14.90;;;5.90;83.40;;;;;;5044595;28;19912;-66
2021/04/18 03:25:32;;;;;;;;;;;5.90;83.20;;;;;;5045803;28;20031;-67
2021/04/18 03:27:57;;;;;;;25.60;14.93;;;5.90;83.30;;;;;;5044508;28;19957;-67
2021/04/18 03:30:23;;;;;;;;;;;5.90;83.10;;;;;;5045698;28;20041;-67
2021/04/18 03:32:49;;;;;;;21.88;12.93;;;5.90;82.90;;;;;;5043255;28;19966;-68
2021/04/18 03:35:14;;;;;;;;;;;5.90;82.90;;;;;;5045302;28;20033;-67
2021/04/18 03:37:40;;;;;;;21.17;12.80;;;6.00;82.60;;;;;;5044779;28;19908;-67
2021/04/18 03:40:06;;;;;;;;;;;5.90;82.60;;;;;;5044886;28;20485;-68
2021/04/18 03:42:32;;;;;;;23.30;12.38;;;5.90;82.40;;;;;;5045010;28;20376;-67
2021/04/18 03:44:57;;;;;;;;;;;5.90;82.50;;;;;;5045109;28;20059;-67
2021/04/18 03:47:23;;;;;;;23.13;12.70;;;5.90;82.40;;;;;;5045049;28;19905;-66
2021/04/18 03:49:48;;;;;;;;;;;5.90;82.70;;;;;;5044418;28;20543;-67
2021/04/18 03:52:14;;;;;;;19.90;12.18;;;5.90;82.80;;;;;;5044121;28;19912;-68
2021/04/18 03:54:40;;;;;;;18.13;11.48;;;5.90;82.80;;;;;;5044720;28;20029;-67
2021/04/18 03:57:05;;;;;;;;;;;5.80;82.80;;;;;;5044764;28;20653;-67
2021/04/18 03:59:31;;;;;;;15.65;10.85;;;5.80;82.90;;;;;;5044957;28;19908;-67
2021/04/18 04:01:57;;;;;;;;;;;5.80;83.00;;;;;;5044832;28;20107;-67
2021/04/18 04:04:22;;;;;;;14.60;10.10;;;5.80;82.90;;;;;;5043164;28;20037;-66
2021/04/18 04:06:49;;;;;;;16.05;10.88;;;5.80;82.90;;;;;;5043607;28;20045;-67
2021/04/18 04:09:14;;;;;;;12.60;8.85;;;5.80;83.20;;;;;;5044144;28;20040;-67
2021/04/18 04:11:40;;;;;;;;;;;5.70;83.30;;;;;;5044691;28;20041;-67
2021/04/18 04:14:06;;;;;;;16.48;10.20;;;5.80;83.30;;;;;;5042742;28;20227;-67
2021/04/18 04:16:32;;;;;;;;;;;5.80;83.30;;;;;;5043498;28;20025;-67
2021/04/18 04:18:57;;;;;;;17.17;11.10;;;5.90;83.20;;;;;;5043978;28;20013;-67
2021/04/18 04:21:23;;;;;;;;;;;5.90;83.00;;;;;;5044369;28;20057;-67
2021/04/18 04:23:49;;;;;;;15.50;10.60;;;5.90;82.60;;;;;;5043732;28;20293;-68
2021/04/18 04:26:14;;;;;;;;;;;5.90;82.70;;;;;;5044340;28;20119;-66
2021/04/18 04:28:40;;;;;;;20.92;11.98;;;6.00;82.90;;;;;;5043892;28;20367;-66
2021/04/18 04:31:05;;;;;;;15.60;10.68;;;6.00;82.70;;;;;;5043516;28;20044;-67
2021/04/18 04:33:35;;;;;;;;;;;6.10;82.80;;;;;;5044371;28;20025;-67
2021/04/18 04:36:00;;;;;;;21.60;12.48;;;6.10;82.90;;;;;;5043792;28;19911;-67
2021/04/18 04:38:26;;;;;;;;;;;6.20;81.80;;;;;;5045981;28;20350;-66
2021/04/18 04:40:51;;;;;;;20.08;11.73;;;6.20;81.20;;;;;;5046091;28;19958;-67
2021/04/18 04:43:17;;;;;;;;;;;6.30;81.00;;;;;;5047285;28;20489;-66
2021/04/18 04:45:43;;;;;;;17.17;10.10;;;6.40;80.50;;;;;;5046956;28;19927;-66
2021/04/18 04:48:08;;;;;;;;;;;6.60;80.40;;;;;;5047126;28;20056;-67
2021/04/18 04:50:34;;;;;;;20.25;11.05;;;6.60;80.50;;;;;;5045882;28;19913;-66
2021/04/18 04:52:59;;;;;;;;;;;6.70;80.20;;;;;;5046647;28;20086;-65
2021/04/18 04:55:25;;;;;;;17.33;10.30;;;6.80;80.30;;;;;;5047025;28;20873;-67
2021/04/18 04:57:50;;;;;;;20.33;12.20;;;6.90;80.10;;;;;;5045473;28;20029;-67
2021/04/18 05:00:16;;;;;;;;;;;6.90;80.20;;;;;;5045612;28;20048;-66
2021/04/18 05:02:42;;;;;;;30.10;16.70;;;7.00;80.20;;;;;;5046446;28;19914;-66
2021/04/18 05:05:08;;;;;;;;;;;7.20;79.80;;;;;;5047160;28;20128;-66
2021/04/18 05:07:33;;;;;;;22.30;13.13;;;7.20;79.00;;;;;;5045859;28;19915;-66
2021/04/18 05:09:59;;;;;;;;;;;7.30;79.30;;;;;;5046981;28;20032;-67
2021/04/18 05:12:24;;;;;;;21.27;12.25;;;7.40;78.20;;;;;;5045490;28;20007;-66
2021/04/18 05:14:50;;;;;;;;;;;7.50;78.50;;;;;;5046455;28;20487;-67
2021/04/18 05:17:15;;;;;;;34.45;16.95;;;7.60;78.30;;;;;;5046575;28;20022;-66
2021/04/18 05:19:41;;;;;;;;;;;7.60;77.90;;;;;;5046998;28;20029;-67
2021/04/18 05:22:07;;;;;;;46.17;20.23;;;7.70;76.80;;;;;;5045999;28;20300;-67
2021/04/18 05:24:32;;;;;;;39.45;19.30;;;7.80;76.70;;;;;;5046369;28;20082;-66
2021/04/18 05:26:58;;;;;;;;;;;7.90;76.50;;;;;;5046461;28;20091;-66
2021/04/18 05:29:23;;;;;;;37.70;18.67;;;8.10;76.30;;;;;;5046211;28;19940;-67
2021/04/18 05:31:49;;;;;;;;;;;8.20;76.20;;;;;;5046542;28;20084;-66
2021/04/18 05:34:15;;;;;;;32.83;16.05;;;8.30;75.40;;;;;;5046377;28;19905;-67
2021/04/18 05:36:40;;;;;;;;;;;8.40;75.40;;;;;;5045948;28;20067;-67
2021/04/18 05:39:09;;;;;;;25.00;13.23;;;8.50;74.80;;;;;;5046036;28;20453;-67
2021/04/18 05:41:38;;;;;;;24.73;13.63;;;8.60;74.20;;;;;;5046255;28;20063;-66
2021/04/18 05:44:06;;;;;;;24.83;13.85;;;8.70;74.20;;;;;;5045954;28;20065;-66
2021/04/18 05:46:32;;;;;;;20.90;11.30;;;8.90;73.80;;;;;;5045705;28;20044;-66
2021/04/18 05:48:58;;;;;;;;;;;9.00;73.20;;;;;;5046404;28;20029;-67
2021/04/18 05:51:24;;;;;;;18.45;10.55;;;9.10;72.60;;;;;;5045640;28;20015;-67
2021/04/18 05:53:49;;;;;;;;;;;9.20;73.10;;;;;;5046569;28;20022;-66
2021/04/18 05:56:15;;;;;;;12.75;8.45;;;9.30;73.20;;;;;;5046091;28;19912;-67
2021/04/18 05:58:41;;;;;;;;;;;9.40;73.10;;;;;;5046301;28;20040;-66
2021/04/18 06:01:06;;;;;;;14.95;8.65;;;9.50;72.60;;;;;;5046155;28;19995;-67
2021/04/18 06:03:32;;;;;;;;;;;9.70;72.10;;;;;;5046270;28;20405;-67
2021/04/18 06:05:57;;;;;;;14.75;9.63;;;9.80;70.50;;;;;;5045393;28;19913;-66
2021/04/18 06:08:23;;;;;;;;;;;9.80;70.00;;;;;;5044894;28;20123;-66
2021/04/18 06:10:48;;;;;;;12.38;8.23;;;10.00;69.30;;;;;;5045611;28;19917;-67
2021/04/18 06:13:14;;;;;;;;;;;10.00;69.20;;;;;;5046382;28;20025;-67
2021/04/18 06:15:40;;;;;;;14.20;7.68;;;10.10;67.70;;;;;;5046012;28;20019;-65
2021/04/18 06:18:05;;;;;;;;;;;10.30;68.60;;;;;;5046136;28;20479;-67
2021/04/18 06:20:31;;;;;;;13.88;10.52;;;10.40;70.30;;;;;;5045477;28;19916;-66
2021/04/18 06:22:56;;;;;;;;;;;10.50;70.40;;;;;;5046401;28;20024;-66
2021/04/18 06:25:22;;;;;;;17.48;11.43;;;10.60;70.20;;;;;;5045824;28;19915;-66
2021/04/18 06:27:48;;;;;;;;;;;10.70;70.00;;;;;;5046018;28;20517;-66
2021/04/18 06:30:14;;;;;;;21.40;12.07;;;10.80;69.40;;;;;;5045534;28;19989;-66
2021/04/18 06:32:40;;;;;;;17.38;11.73;;;10.90;69.10;;;;;;5045595;28;20471;-66
2021/04/18 06:35:06;;;;;;;;;;;11.00;67.90;;;;;;5045576;28;20041;-67
2021/04/18 06:37:32;;;;;;;19.00;12.82;;;11.20;67.20;;;;;;5045333;28;19936;-66
2021/04/18 06:39:57;;;;;;;27.48;13.35;;;11.30;67.30;;;;;;5047693;28;20085;-66
2021/04/18 06:42:23;;;;;;;;;;;11.40;66.80;;;;;;5049761;28;20033;-67
2021/04/18 06:44:50;;;;;;;21.52;13.48;;;11.60;66.70;;;;;;5049151;28;19986;-67
2021/04/18 06:47:16;;;;;;;22.17;15.40;;;11.60;66.30;;;;;;5049537;28;20032;-67
2021/04/18 06:49:42;;;;;;;;;;;11.70;66.10;;;;;;5049113;28;20029;-67
2021/04/18 06:52:08;;;;;;;20.52;13.77;;;11.70;64.90;;;;;;5049283;28;19986;-66
2021/04/18 06:54:34;;;;;;;18.77;13.07;;;11.80;63.60;;;;;;5047550;28;20477;-67
2021/04/18 06:57:00;;;;;;;24.73;14.23;;;11.90;63.40;;;;;;5047677;28;20450;-67
2021/04/18 06:59:25;;;;;;;;;;;12.00;62.80;;;;;;5049615;28;20060;-67
2021/04/18 07:01:51;;;;;;;28.23;17.08;;;12.10;62.10;;;;;;5048667;28;19908;-67
2021/04/18 07:04:18;;;;;;;;;;;12.20;62.10;;;;;;5049635;28;20405;-67
2021/04/18 07:06:52;;;;;;;27.55;15.48;;;12.30;61.00;;;;;;5048658;28;19909;-66
2021/04/18 07:09:19;;;;;;;23.48;14.63;;;12.40;61.40;;;;;;5049258;28;20071;-67
2021/04/18 07:12:08;;;;;;;21.23;14.25;;;12.40;61.40;;;;;;5048837;28;20129;-67
2021/04/18 07:14:35;;;;;;;17.58;12.25;;;12.40;61.60;;;;;;5048771;28;20021;-67
2021/04/18 07:17:14;;;;;;;17.50;12.05;;;12.40;60.60;;;;;;5047004;28;20045;-67
2021/04/18 07:19:43;;;;;;;15.70;11.15;;;12.50;60.10;;;;;;5047039;28;20091;-66
2021/04/18 07:22:09;;;;;;;16.95;11.25;;;12.40;59.70;;;;;;5048858;28;20037;-67
2021/04/18 07:24:53;;;;;;;16.60;10.93;;;12.30;59.20;;;;;;5048647;28;20021;-67
2021/04/18 07:27:20;;;;;;;13.38;8.38;;;12.30;58.40;;;;;;5048731;28;20059;-67
2021/04/18 07:29:57;;;;;;;16.83;10.77;;;12.20;58.30;;;;;;5048179;28;20535;-67
2021/04/18 07:32:27;;;;;;;12.32;9.52;;;12.20;58.70;;;;;;5048238;28;20044;-67
2021/04/18 07:34:54;;;;;;;18.98;10.32;;;12.10;59.30;;;;;;5047865;28;20103;-69
2021/04/18 07:37:24;;;;;;;14.15;10.23;;;12.00;60.60;;;;;;5047145;28;20024;-67
2021/04/18 07:39:57;;;;;;;18.40;12.63;;;11.90;61.70;;;;;;5048071;28;20032;-67
2021/04/18 07:42:41;;;;;;;17.98;12.27;;;11.80;62.70;;;;;;5048556;28;20048;-68
2021/04/18 07:45:16;;;;;;;15.30;11.35;;;11.60;64.10;;;;;;5048256;28;20124;-67
2021/04/18 07:47:44;;;;;;;17.58;12.45;;;11.50;64.90;;;;;;5048356;28;20060;-69
2021/04/18 07:50:13;;;;;;;15.90;12.48;;;11.50;64.90;;;;;;5047598;28;20036;-68
2021/04/18 07:52:41;;;;;;;15.00;11.32;;;11.50;65.60;;;;;;5048276;28;20028;-69
2021/04/18 07:55:08;;;;;;;17.55;12.90;;;11.50;65.80;;;;;;5046917;28;20033;-68
2021/04/18 07:57:34;;;;;;;15.65;12.23;;;11.50;65.90;;;;;;5048060;28;20025;-68
2021/04/18 07:59:59;;;;;;;;;;;11.40;65.80;;;;;;5047975;28;20035;-69
2021/04/18 08:02:26;;;;;;;19.35;12.30;;;11.50;65.80;;;;;;5047872;28;19955;-69
2021/04/18 08:04:55;;;;;;;17.05;12.38;;;11.40;65.70;;;;;;5046009;28;20025;-69
2021/04/18 08:07:24;;;;;;;17.55;12.55;;;11.50;65.10;;;;;;5047490;28;20033;-69
2021/04/18 08:10:25;;;;;;;17.23;11.77;;;11.40;65.90;;;;;;5046052;28;20420;-68
2021/04/18 08:13:23;;;;;;;15.10;11.20;;;11.40;65.50;;;;;;5047973;28;20136;-69
2021/04/18 08:16:01;;;;;;;16.70;11.73;;;11.40;65.90;;;;;;5039087;28;20045;-68
2021/04/18 08:18:31;;;;;;;25.77;16.00;;;11.40;65.30;;;;;;5047735;28;20021;-68
2021/04/18 08:20:57;;;;;;;19.13;12.25;;;11.30;65.80;;;;;;5045756;28;20036;-69
2021/04/18 08:23:22;;;;;;;;;;;11.20;65.20;;;;;;5046886;28;20029;-68
2021/04/18 08:26:07;;;;;;;17.02;12.27;;;11.30;65.40;;;;;;5047493;28;19915;-68
2021/04/18 08:28:55;;;;;;;15.63;12.40;;;11.30;65.40;;;;;;5047461;28;20434;-69
2021/04/18 08:31:51;;;;;;;12.95;9.40;;;11.30;64.90;;;;;;5047319;28;20565;-69
2021/04/18 08:34:23;;;;;;;12.45;9.30;;;11.30;64.70;;;;;;5031207;28;20563;-69
2021/04/18 08:36:52;;;;;;;12.73;8.18;;;11.40;64.90;;;;;;5047290;28;20032;-69
2021/04/18 08:39:24;;;;;;;16.25;9.32;;;11.40;64.30;;;;;;5045401;28;20035;-68
2021/04/18 08:41:52;;;;;;;13.18;8.98;;;11.50;64.30;;;;;;5045650;28;20029;-69
2021/04/18 08:44:18;;;;;;;11.82;9.18;;;11.60;63.70;;;;;;5046857;28;20466;-68
2021/04/18 08:46:44;;;;;;;;;;;11.70;62.80;;;;;;5047650;28;20037;-68
2021/04/18 08:49:11;;;;;;;15.05;5.57;;;11.70;60.30;;;;;;5046643;28;19909;-68
2021/04/18 08:51:38;;;;;;;8.50;4.30;;;11.70;58.20;;;;;;5046782;28;20033;-69
2021/04/18 08:54:04;;;;;;;5.78;4.28;;;11.90;55.60;;;;;;5046789;28;20033;-68
2021/04/18 08:56:52;;;;;;;9.23;5.97;;;11.90;53.70;;;;;;5046906;28;20121;-68
2021/04/18 08:59:19;;;;;;;14.05;9.77;;;11.80;54.50;;;;;;5046945;28;20031;-69
2021/04/18 09:02:03;;;;;;;9.93;7.05;;;11.60;55.10;;;;;;5045922;28;20040;-69
2021/04/18 09:04:34;;;;;;;9.23;5.85;;;11.60;56.20;;;;;;5046381;28;20025;-68
2021/04/18 09:07:01;;;;;;;7.88;5.65;;;11.70;55.50;;;;;;5045563;28;20057;-69
2021/04/18 09:09:27;;;;;;;7.85;5.55;;;11.70;55.30;;;;;;5046974;28;20032;-69
2021/04/18 09:11:54;;;;;;;8.52;5.47;;;11.80;55.20;;;;;;5045105;28;20040;-68
2021/04/18 09:14:31;;;;;;;7.57;4.68;;;11.90;55.50;;;;;;5046295;28;20021;-69
2021/04/18 09:17:12;;;;;;;7.00;5.30;;;12.00;55.60;;;;;;5046572;28;20036;-69
2021/04/18 09:19:39;;;;;;;7.22;5.07;;;12.00;55.10;;;;;;5046647;28;20017;-69
2021/04/18 09:22:10;;;;;;;6.20;4.70;;;12.00;55.00;;;;;;5046264;28;20379;-69
2021/04/18 09:24:42;;;;;;;7.60;4.82;;;12.00;54.30;;;;;;5046680;28;20036;-68
2021/04/18 09:27:12;;;;;;;8.15;5.25;;;12.00;55.00;;;;;;5046135;28;20064;-68
2021/04/18 09:29:47;;;;;;;6.38;4.65;;;12.00;54.90;;;;;;5046500;28;20017;-69
2021/04/18 09:32:15;;;;;;;6.50;4.55;;;12.00;55.70;;;;;;5046150;28;20040;-68
2021/04/18 09:34:42;;;;;;;26.48;16.83;;;11.90;55.30;;;;;;5044723;28;20021;-69
2021/04/18 09:37:14;;;;;;;15.18;8.60;;;12.20;55.60;;;;;;5046067;28;20033;-69
2021/04/18 09:39:41;;;;;;;8.63;4.53;;;12.50;55.20;;;;;;5046450;28;20021;-68
2021/04/18 09:42:08;;;;;;;12.73;8.70;;;12.70;52.00;;;;;;5045866;28;20017;-69
2021/04/18 09:44:42;;;;;;;26.52;15.95;;;13.00;52.90;;;;;;5046176;28;20068;-69
2021/04/18 09:47:20;;;;;;;9.40;6.05;;;13.20;51.80;;;;;;5046309;28;20029;-69
2021/04/18 09:49:58;;;;;;;7.93;5.05;;;13.20;51.90;;;;;;5045790;28;20032;-68
2021/04/18 09:52:26;;;;;;;21.17;12.50;;;12.90;51.20;;;;;;5045920;28;20425;-68
2021/04/18 09:54:51;;;;;;;43.20;25.17;;;13.10;51.80;;;;;;5045787;28;20068;-70
2021/04/18 09:57:22;;;;;;;;;;;13.40;51.00;;;;;;5046399;28;20505;-68
2021/04/18 10:00:05;;;;;;;19.65;11.25;;;13.50;51.80;;;;;;5045708;28;19905;-69
2021/04/18 10:02:30;;;;;;;25.73;15.20;;;13.70;50.60;;;;;;5045817;28;20029;-66
2021/04/18 10:05:09;;;;;;;;;;;13.80;50.20;;;;;;5046421;28;20040;-67
2021/04/18 10:07:35;;;;;;;7.43;5.10;;;13.60;50.70;;;;;;5046053;28;19916;-66
2021/04/18 10:10:01;;;;;;;;;;;13.70;50.10;;;;;;5046340;28;20029;-66
2021/04/18 10:12:27;;;;;;;8.60;5.40;;;13.50;51.70;;;;;;5044749;28;20289;-66
2021/04/18 10:15:05;;;;;;;;;;;13.30;52.30;;;;;;5050440;28;20032;-67
2021/04/18 10:17:35;;;;;;;8.52;5.38;;;12.90;52.90;;;;;;5049536;28;19962;-67
2021/04/18 10:20:02;;;;;;;9.57;6.32;;;12.70;53.50;;;;;;5049807;28;20489;-67
2021/04/18 10:22:28;;;;;;;12.63;6.55;;;12.50;55.50;;;;;;5049831;28;20033;-66
2021/04/18 10:24:56;;;;;;;;;;;12.50;55.10;;;;;;5050317;28;20162;-65
2021/04/18 10:27:25;;;;;;;7.50;4.90;;;12.20;55.20;;;;;;5049341;28;19909;-66
2021/04/18 10:29:51;;;;;;;7.25;5.22;;;12.20;56.20;;;;;;5048171;28;20036;-66
2021/04/18 10:32:18;;;;;;;8.43;6.05;;;12.10;58.30;;;;;;5049229;28;20072;-66
2021/04/18 10:34:46;;;;;;;9.43;7.30;;;12.00;58.60;;;;;;5049280;28;20083;-66
2021/04/18 10:37:12;;;;;;;9.60;6.47;;;11.90;60.20;;;;;;5048057;28;20067;-66
2021/04/18 10:39:38;;;;;;;;;;;11.90;60.70;;;;;;5050036;28;20029;-67
2021/04/18 10:42:04;;;;;;;9.73;6.45;;;11.80;61.00;;;;;;5048972;28;19912;-66
2021/04/18 10:44:30;;;;;;;9.15;7.20;;;11.70;62.50;;;;;;5049475;28;20497;-68
2021/04/18 10:46:56;;;;;;;;;;;11.60;63.60;;;;;;5049531;28;20040;-68
2021/04/18 10:49:23;;;;;;;9.93;6.65;;;11.70;64.20;;;;;;5049001;28;19905;-68
2021/04/18 10:51:49;;;;;;;8.38;6.25;;;11.70;64.20;;;;;;5047935;28;20044;-68
2021/04/18 10:54:16;;;;;;;;;;;11.80;64.20;;;;;;5049613;28;20439;-68
2021/04/18 10:56:42;;;;;;;10.93;7.03;;;12.10;63.20;;;;;;5048567;28;19909;-68
2021/04/18 10:59:08;;;;;;;12.40;7.68;;;11.80;65.50;;;;;;5049287;28;20405;-69
2021/04/18 11:01:34;;;;;;;;;;;11.70;65.80;;;;;;5049813;28;20029;-68
2021/04/18 11:03:59;;;;;;;9.80;7.15;;;11.60;67.50;;;;;;5048273;28;19905;-68
2021/04/18 11:06:25;;;;;;;;;;;11.80;67.80;;;;;;5049673;28;20040;-68
2021/04/18 11:08:51;;;;;;;13.25;9.43;;;11.70;69.30;;;;;;5049095;28;19916;-68
2021/04/18 11:11:16;;;;;;;;;;;11.70;69.60;;;;;;5049010;28;20120;-68
2021/04/18 11:13:42;;;;;;;14.07;10.13;;;11.70;70.60;;;;;;5047722;28;19909;-68
2021/04/18 11:16:07;;;;;;;;;;;11.60;69.80;;;;;;5048981;28;20767;-69
2021/04/18 11:18:33;;;;;;;14.45;8.75;;;11.60;71.10;;;;;;5046848;28;20403;-68
2021/04/18 11:20:59;;;;;;;17.85;14.93;;;11.70;71.00;;;;;;5048733;28;20036;-68
2021/04/18 11:23:25;;;;;;;;;;;11.70;71.00;;;;;;5049028;28;20041;-69
2021/04/18 11:25:51;;;;;;;10.80;8.18;;;11.80;70.90;;;;;;5047866;28;20490;-68
2021/04/18 11:28:16;;;;;;;;;;;12.00;69.20;;;;;;5048667;28;20025;-70
2021/04/18 11:30:42;;;;;;;13.77;7.07;;;12.10;68.90;;;;;;5048684;28;20506;-68
2021/04/18 11:33:07;;;;;;;;;;;12.20;69.70;;;;;;5048588;28;20032;-69
2021/04/18 11:35:33;;;;;;;12.35;6.30;;;12.40;66.70;;;;;;5048282;28;19954;-69
2021/04/18 11:38:00;;;;;;;;;;;12.50;66.60;;;;;;5049008;28;20112;-66
2021/04/18 11:40:26;;;;;;;17.52;9.82;;;12.70;67.20;;;;;;5048420;28;20007;-65
2021/04/18 11:42:53;;;;;;;8.45;5.57;;;12.80;67.10;;;;;;5048297;28;20033;-67
2021/04/18 11:45:20;;;;;;;10.23;6.88;;;13.00;66.00;;;;;;5048201;28;20276;-67
2021/04/18 11:47:46;;;;;;;8.40;5.72;;;13.20;64.60;;;;;;5046527;28;20408;-65
2021/04/18 11:50:12;;;;;;;;;;;13.20;62.40;;;;;;5048663;28;20077;-66
2021/04/18 11:52:38;;;;;;;9.35;6.28;;;13.40;63.40;;;;;;5048298;28;20399;-67
2021/04/18 11:55:04;;;;;;;;;;;13.60;63.80;;;;;;5048306;28;20028;-65
2021/04/18 11:57:30;;;;;;;7.93;6.00;;;13.90;61.20;;;;;;5048115;28;19905;-67
2021/04/18 11:59:56;;;;;;;;;;;13.90;63.30;;;;;;5048060;28;20049;-67
2021/04/18 12:02:22;;;;;;;6.90;4.93;;;14.10;65.00;;;;;;5047805;28;19904;-66
2021/04/18 12:04:48;;;;;;;10.02;4.60;;;14.10;63.90;;;;;;5047770;28;20881;-66
2021/04/18 12:07:13;;;;;;;;;;;14.10;62.80;;;;;;5048313;28;20029;-67
2021/04/18 12:09:39;;;;;;;6.55;4.57;;;13.90;61.70;;;;;;5047922;28;20508;-68
2021/04/18 12:12:05;;;;;;;;;;;13.50;61.40;;;;;;5046728;28;20506;-66
2021/04/18 12:14:30;;;;;;;8.75;5.70;;;13.30;61.80;;;;;;5046616;28;19917;-66
2021/04/18 12:16:56;;;;;;;;;;;13.30;62.10;;;;;;5047557;28;20051;-66
2021/04/18 12:19:21;;;;;;;8.18;5.57;;;13.30;61.70;;;;;;5046657;28;20396;-64
2021/04/18 12:21:47;;;;;;;;;;;13.30;61.40;;;;;;5048169;28;20504;-66
2021/04/18 12:24:12;;;;;;;7.35;5.55;;;13.10;60.60;;;;;;5047188;28;20284;-67
2021/04/18 12:26:38;;;;;;;;;;;12.80;60.80;;;;;;5048073;28;20070;-67
2021/04/18 12:29:04;;;;;;;7.07;4.85;;;12.70;62.10;;;;;;5047704;28;20397;-66
2021/04/18 12:31:29;;;;;;;;;;;12.70;63.70;;;;;;5047170;28;20489;-67
2021/04/18 12:33:55;;;;;;;14.48;6.32;;;12.90;62.60;;;;;;5047231;28;19908;-65
2021/04/18 12:36:21;;;;;;;;;;;12.80;64.10;;;;;;5045509;28;20029;-67
2021/04/18 12:38:46;;;;;;;7.75;4.45;;;12.70;65.00;;;;;;5046835;28;19908;-66
2021/04/18 12:41:13;;;;;;;;;;;12.60;65.50;;;;;;5047753;28;20114;-66
2021/04/18 12:43:39;;;;;;;6.70;5.13;;;12.80;65.60;;;;;;5046822;28;19913;-67
2021/04/18 12:46:06;;;;;;;6.97;5.10;;;12.50;66.80;;;;;;5046438;28;20602;-66
2021/04/18 12:48:32;;;;;;;7.82;5.35;;;12.30;67.50;;;;;;5046772;28;20083;-65
2021/04/18 12:50:57;;;;;;;;;;;12.00;69.40;;;;;;5047160;28;20036;-66
2021/04/18 12:53:23;;;;;;;8.45;5.72;;;11.90;69.80;;;;;;5046938;28;19909;-66
2021/04/18 12:55:49;;;;;;;;;;;11.80;70.00;;;;;;5046844;28;20094;-66
2021/04/18 12:58:14;;;;;;;12.90;6.63;;;11.40;71.70;;;;;;5045660;28;19908;-66
2021/04/18 13:00:40;;;;;;;;;;;11.20;73.30;;;;;;5046662;28;20031;-66
2021/04/18 13:03:06;;;;;;;9.52;6.07;;;11.00;76.00;;;;;;5046692;28;19909;-66
2021/04/18 13:05:31;;;;;;;;;;;10.90;76.10;;;;;;5047193;28;20036;-66
2021/04/18 13:07:57;;;;;;;8.73;5.78;;;10.80;76.90;;;;;;5046785;28;19935;-65
2021/04/18 13:10:26;;;;;;;;;;;10.70;78.20;;;;;;5047471;28;20024;-66